Time;durP1;ratioP1;P1;durP2;ratioP2;P2;SDS_P1;SDS_P2;PMS_P1;PMS_P2;Temp;Humidity;BMP_temperature;BMP_pressure;BME280_temperature;BME280_humidity;BME280_pressure;Samples;Min_cycle;Max_cycle;Signal;HPM_P1;HPM_P2
2022/10/23 00:02:21;;;;;;;19.88;11.52;;;;;;;10.56;100.00;101378.38;5074000;28;20047;-69
2022/10/23 00:04:50;;;;;;;17.02;9.88;;;;;;;10.54;100.00;101377.56;5078706;28;20063;-69
2022/10/23 00:07:15;;;;;;;24.33;11.95;;;;;;;10.54;100.00;101373.13;5082111;28;20123;-69
2022/10/23 00:09:41;;;;;;;22.50;11.20;;;;;;;10.47;100.00;101366.38;5075943;28;20127;-70
2022/10/23 00:12:06;;;;;;;21.33;9.65;;;;;;;10.35;100.00;101362.59;5072406;28;20028;-69
2022/10/23 00:14:32;;;;;;;33.20;9.40;;;;;;;10.23;100.00;101355.22;5080217;28;20047;-69
2022/10/23 00:16:57;;;;;;;14.45;8.55;;;;;;;10.21;100.00;101358.91;5079042;28;20032;-69
2022/10/23 00:19:23;;;;;;;19.02;9.38;;;;;;;10.17;100.00;101352.88;5081146;28;20497;-69
2022/10/23 00:21:48;;;;;;;25.77;9.93;;;;;;;10.18;100.00;101351.06;5080558;28;20039;-69
2022/10/23 00:24:14;;;;;;;18.30;8.77;;;;;;;10.04;100.00;101343.81;5080131;28;20442;-69
2022/10/23 00:26:40;;;;;;;16.02;8.63;;;;;;;9.84;100.00;101337.75;5082850;28;20519;-69
2022/10/23 00:29:07;;;;;;;21.25;8.25;;;;;;;9.80;100.00;101338.84;5080387;28;20052;-69
2022/10/23 00:31:33;;;;;;;11.10;6.65;;;;;;;9.88;100.00;101337.56;5081649;28;20036;-70
2022/10/23 00:33:59;;;;;;;13.00;9.02;;;;;;;10.01;100.00;101351.97;5078566;28;20036;-68
2022/10/23 00:36:26;;;;;;;11.75;6.80;;;;;;;9.91;100.00;101345.41;5079960;28;20039;-68
2022/10/23 00:38:51;;;;;;;15.80;6.40;;;;;;;9.90;100.00;101339.22;5080132;28;20104;-68
2022/10/23 00:41:23;;;;;;;17.13;6.55;;;;;;;9.92;100.00;101342.66;5083242;28;20047;-67
2022/10/23 00:43:57;;;;;;;8.38;5.70;;;;;;;10.02;100.00;101343.91;5080605;28;20115;-68
2022/10/23 00:46:23;;;;;;;12.13;7.15;;;;;;;9.96;100.00;101341.56;5073346;28;20126;-69
2022/10/23 00:48:48;;;;;;;12.98;7.05;;;;;;;10.01;100.00;101346.66;5080782;28;20039;-68
2022/10/23 00:51:14;;;;;;;19.92;8.68;;;;;;;10.04;100.00;101342.03;5078497;28;20036;-68
2022/10/23 00:53:40;;;;;;;14.02;7.60;;;;;;;10.10;100.00;101347.03;5085422;28;20059;-68
2022/10/23 00:56:06;;;;;;;17.88;8.57;;;;;;;10.10;100.00;101347.03;5081493;28;20040;-68
2022/10/23 00:58:31;;;;;;;19.88;8.40;;;;;;;10.13;100.00;101338.84;5074141;28;20089;-69
2022/10/23 01:00:57;;;;;;;24.88;8.30;;;;;;;10.17;100.00;101333.38;5067911;28;20466;-68
2022/10/23 01:03:26;;;;;;;17.85;8.18;;;;;;;10.15;100.00;101337.94;5077977;28;20044;-69
2022/10/23 01:05:57;;;;;;;16.55;8.60;;;;;;;10.15;100.00;101330.78;5069742;28;20044;-69
2022/10/23 01:08:44;;;;;;;16.25;6.65;;;;;;;10.02;100.00;101324.38;5078443;28;20038;-69
2022/10/23 01:11:18;;;;;;;11.15;6.80;;;;;;;9.88;100.00;101324.25;5073529;28;20067;-69
2022/10/23 01:14:01;;;;;;;10.60;7.32;;;;;;;9.97;100.00;101321.09;5080104;28;20100;-68
2022/10/23 01:16:43;;;;;;;19.45;7.10;;;;;;;9.90;100.00;101331.22;5074623;28;20033;-68
2022/10/23 01:19:36;;;;;;;14.90;6.87;;;;;;;9.94;100.00;101321.25;5079300;28;20102;-68
2022/10/23 01:22:17;;;;;;;10.85;6.25;;;;;;;9.97;100.00;101326.44;5069572;28;20052;-69
2022/10/23 01:25:10;;;;;;;10.88;6.38;;;;;;;9.86;100.00;101311.88;5077721;28;20056;-68
2022/10/23 01:27:39;;;;;;;27.08;7.65;;;;;;;9.84;100.00;101324.44;5080756;28;20377;-68
2022/10/23 01:30:14;;;;;;;17.77;7.38;;;;;;;9.68;100.00;101322.63;5078847;28;20089;-68
2022/10/23 01:32:57;;;;;;;11.77;4.07;;;;;;;9.66;100.00;101330.72;5071096;28;20585;-69
2022/10/23 01:35:33;;;;;;;9.60;3.97;;;;;;;9.76;100.00;101321.28;5077706;28;20781;-69
2022/10/23 01:38:20;;;;;;;9.52;5.00;;;;;;;9.78;100.00;101315.88;5078150;28;20028;-69
2022/10/23 01:41:05;;;;;;;11.77;5.18;;;;;;;9.73;100.00;101307.28;5093319;28;20142;-68
2022/10/23 01:43:42;;;;;;;6.18;4.90;;;;;;;9.63;100.00;101309.56;5079523;28;20066;-68
2022/10/23 01:46:13;;;;;;;29.58;6.20;;;;;;;9.54;100.00;101316.22;5079037;28;20036;-68
2022/10/23 01:48:44;;;;;;;22.05;6.60;;;;;;;9.63;100.00;101309.56;5075299;28;20039;-68
2022/10/23 01:51:13;;;;;;;10.10;6.72;;;;;;;9.77;100.00;101309.69;5090581;28;20085;-68
2022/10/23 01:53:41;;;;;;;11.23;6.45;;;;;;;9.77;100.00;101300.84;5079973;28;20411;-68
2022/10/23 01:56:17;;;;;;;30.27;9.77;;;;;;;9.94;100.00;101300.84;5076869;28;20708;-69
2022/10/23 01:58:46;;;;;;;20.35;8.63;;;;;;;9.89;100.00;101302.88;5070424;28;20036;-68
2022/10/23 02:01:15;;;;;;;17.48;8.05;;;;;;;9.84;100.00;101296.94;5077307;28;20042;-69
2022/10/23 02:03:48;;;;;;;18.35;8.27;;;;;;;9.92;100.00;101285.84;5079198;28;20035;-68
2022/10/23 02:06:14;;;;;;;16.35;7.93;;;;;;;9.91;100.00;101289.47;5077753;28;20047;-68
2022/10/23 02:08:40;;;;;;;15.55;6.70;;;;;;;9.81;100.00;101284.63;5078026;28;20058;-68
2022/10/23 02:11:08;;;;;;;13.25;8.23;;;;;;;9.99;100.00;101284.56;5079264;28;20028;-68
2022/10/23 02:13:48;;;;;;;12.93;8.70;;;;;;;10.02;100.00;101284.41;5080945;28;20082;-68
2022/10/23 02:16:22;;;;;;;13.30;8.45;;;;;;;9.96;100.00;101282.94;5072712;28;20049;-68
2022/10/23 02:18:50;;;;;;;12.43;7.60;;;;;;;9.99;100.00;101281.91;5080754;28;20435;-68
2022/10/23 02:21:37;;;;;;;25.70;10.10;;;;;;;10.03;100.00;101278.13;5076117;28;20692;-69
2022/10/23 02:24:13;;;;;;;16.02;8.52;;;;;;;10.05;100.00;101273.59;5075911;28;20040;-68
2022/10/23 02:26:51;;;;;;;19.92;9.65;;;;;;;9.97;100.00;101274.00;5076150;28;20043;-68
2022/10/23 02:29:24;;;;;;;26.73;9.68;;;;;;;10.04;100.00;101275.41;5079836;28;20659;-68
2022/10/23 02:31:50;;;;;;;18.20;8.30;;;;;;;9.98;100.00;101274.88;5077616;28;20024;-68
2022/10/23 02:34:17;;;;;;;49.67;11.77;;;;;;;9.78;100.00;101262.63;5077517;28;20039;-69
2022/10/23 02:36:42;;;;;;;14.88;7.90;;;;;;;9.67;100.00;101257.00;5068491;28;20024;-68
2022/10/23 02:39:08;;;;;;;16.77;7.20;;;;;;;9.63;100.00;101260.75;5076649;28;20036;-68
2022/10/23 02:41:45;;;;;;;8.25;6.07;;;;;;;9.53;100.00;101249.75;5080652;28;20703;-68
2022/10/23 02:44:23;;;;;;;12.02;6.82;;;;;;;9.52;100.00;101248.88;5075893;28;20530;-69
2022/10/23 02:47:18;;;;;;;20.88;7.00;;;;;;;9.59;100.00;101252.09;5077613;28;20024;-68
2022/10/23 02:50:13;;;;;;;15.98;7.20;;;;;;;9.27;100.00;101259.94;5072674;28;20035;-68
2022/10/23 02:53:03;;;;;;;18.92;6.28;;;;;;;9.27;100.00;101262.59;5074947;28;20039;-68
2022/10/23 02:56:06;;;;;;;12.13;7.05;;;;;;;9.37;100.00;101255.00;5078294;28;20869;-68
2022/10/23 02:58:38;;;;;;;;;;;;;;;9.43;100.00;101257.34;5074838;28;20622;-68
2022/10/23 03:01:12;;;;;;;11.15;6.97;;;;;;;9.46;100.00;101262.53;5075727;28;19982;-68
2022/10/23 03:03:41;;;;;;;14.23;6.60;;;;;;;9.43;100.00;101260.00;5074997;28;20040;-69
2022/10/23 03:06:07;;;;;;;16.85;7.13;;;;;;;9.45;100.00;101260.81;5077555;28;20048;-69
2022/10/23 03:08:51;;;;;;;21.17;7.75;;;;;;;9.25;100.00;101253.84;5065484;28;20566;-68
2022/10/23 03:11:17;;;;;;;13.63;6.05;;;;;;;9.21;100.00;101248.75;5073202;28;20152;-68
2022/10/23 03:13:42;;;;;;;14.65;5.65;;;;;;;9.29;100.00;101235.94;5072840;28;20069;-68
2022/10/23 03:16:09;;;;;;;7.75;4.63;;;;;;;9.21;100.00;101233.66;5070810;28;20571;-68
2022/10/23 03:18:34;;;;;;;7.10;4.43;;;;;;;9.23;100.00;101222.91;5066778;28;20032;-68
2022/10/23 03:21:01;;;;;;;17.60;5.03;;;;;;;9.27;100.00;101219.16;5069243;28;20111;-68
2022/10/23 03:23:27;;;;;;;17.20;5.65;;;;;;;9.24;100.00;101217.53;5070664;28;20032;-68
2022/10/23 03:25:54;;;;;;;12.73;6.05;;;;;;;9.33;100.00;101217.03;5058840;28;20039;-68
2022/10/23 03:28:40;;;;;;;11.65;5.40;;;;;;;9.49;100.00;101213.59;5078567;28;20420;-68
2022/10/23 03:31:05;;;;;;;11.45;5.53;;;;;;;9.58;100.00;101208.63;5077842;28;21008;-68
2022/10/23 03:33:31;;;;;;;9.80;5.35;;;;;;;9.55;100.00;101205.28;5077311;28;20341;-69
2022/10/23 03:36:05;;;;;;;7.93;4.75;;;;;;;9.69;100.00;101207.19;5075189;28;20036;-68
2022/10/23 03:38:31;;;;;;;12.60;6.78;;;;;;;9.69;100.00;101193.88;5080503;28;20028;-68
2022/10/23 03:40:56;;;;;;;20.55;7.18;;;;;;;9.77;100.00;101191.66;5077786;28;20396;-68
2022/10/23 03:43:22;;;;;;;12.35;6.32;;;;;;;9.74;100.00;101191.81;5075052;28;20059;-68
2022/10/23 03:45:47;;;;;;;23.30;6.93;;;;;;;9.81;100.00;101193.22;5075737;28;20040;-68
2022/10/23 03:48:15;;;;;;;14.43;6.53;;;;;;;9.88;100.00;101194.59;5075554;28;20035;-68
2022/10/23 03:50:40;;;;;;;15.27;7.40;;;;;;;9.95;100.00;101201.31;5068611;28;20032;-68
2022/10/23 03:53:06;;;;;;;12.02;6.90;;;;;;;10.07;100.00;101194.44;5106012;27;20036;-69
2022/10/23 03:55:33;;;;;;;13.40;6.72;;;;;;;10.12;100.00;101197.72;5082810;28;20032;-68
2022/10/23 03:57:58;;;;;;;16.98;7.07;;;;;;;10.08;100.00;101190.81;5080852;28;20032;-68
2022/10/23 04:00:24;;;;;;;19.02;6.22;;;;;;;9.95;100.00;101188.00;5074277;28;20028;-68
2022/10/23 04:02:49;;;;;;;13.73;5.30;;;;;;;9.81;100.00;101185.22;5081508;28;20507;-68
2022/10/23 04:05:15;;;;;;;19.05;5.72;;;;;;;9.81;100.00;101185.22;5079236;28;20121;-68
2022/10/23 04:07:50;;;;;;;8.38;5.18;;;;;;;9.85;100.00;101174.31;5074858;28;20549;-68
2022/10/23 04:10:16;;;;;;;16.52;7.25;;;;;;;10.17;100.00;101173.47;5081706;28;20032;-68
2022/10/23 04:12:41;;;;;;;11.98;5.70;;;;;;;10.19;100.00;101177.78;5076866;28;20087;-69
2022/10/23 04:15:07;;;;;;;15.02;7.50;;;;;;;10.37;100.00;101175.91;5080047;28;20032;-68
2022/10/23 04:17:33;;;;;;;22.35;7.43;;;;;;;10.28;100.00;101171.94;5069708;28;20071;-69
2022/10/23 04:19:58;;;;;;;17.55;6.75;;;;;;;10.28;100.00;101163.09;5081571;28;20949;-69
2022/10/23 04:22:25;;;;;;;19.30;7.45;;;;;;;10.30;100.00;101155.88;5079918;28;20055;-69
2022/10/23 04:24:50;;;;;;;12.95;5.70;;;;;;;10.08;100.00;101148.19;5073217;28;20040;-69
2022/10/23 04:27:17;;;;;;;16.98;7.63;;;;;;;10.16;100.00;101147.78;5069160;28;20511;-69
2022/10/23 04:29:42;;;;;;;16.38;7.32;;;;;;;10.42;100.00;101148.97;5075304;28;20040;-69
2022/10/23 04:32:09;;;;;;;14.10;7.13;;;;;;;10.19;100.00;101140.47;5067748;28;20131;-69
2022/10/23 04:34:34;;;;;;;14.80;7.25;;;;;;;10.41;100.00;101136.59;5070073;28;20032;-69
2022/10/23 04:37:01;;;;;;;14.02;6.80;;;;;;;10.24;100.00;101133.09;5073061;28;20651;-69
2022/10/23 04:39:26;;;;;;;13.95;6.88;;;;;;;10.25;100.00;101140.16;5073417;28;20051;-69
2022/10/23 04:41:52;;;;;;;18.15;7.03;;;;;;;10.35;100.00;101143.16;5073864;28;20044;-69
2022/10/23 04:44:19;;;;;;;12.75;6.38;;;;;;;10.27;100.00;101134.72;5080070;28;20097;-69
2022/10/23 04:46:45;;;;;;;20.45;7.97;;;;;;;10.42;100.00;101139.16;5075009;28;20025;-69
2022/10/23 04:49:10;;;;;;;15.30;7.32;;;;;;;10.24;100.00;101129.56;5095296;28;20055;-69
2022/10/23 04:51:45;;;;;;;19.90;8.30;;;;;;;10.58;100.00;101123.97;5075349;28;20049;-69
2022/10/23 04:54:37;;;;;;;17.50;8.95;;;;;;;10.87;100.00;101124.06;5076581;28;20297;-69
2022/10/23 04:57:29;;;;;;;20.83;8.73;;;;;;;10.79;100.00;101131.66;5070291;28;20047;-69
2022/10/23 04:59:59;;;;;;;25.20;10.80;;;;;;;10.73;100.00;101121.38;5076261;28;20758;-71
2022/10/23 05:02:24;;;;;;;26.48;9.55;;;;;;;10.84;100.00;101121.56;5066333;28;20047;-69
2022/10/23 05:04:51;;;;;;;24.08;10.25;;;;;;;11.21;100.00;101122.03;5067235;28;20135;-69
2022/10/23 05:07:31;;;;;;;23.65;11.20;;;;;;;11.24;100.00;101109.31;5075937;28;20047;-68
2022/10/23 05:10:08;;;;;;;20.25;10.27;;;;;;;11.54;100.00;101114.56;5077432;28;20032;-69
2022/10/23 05:12:43;;;;;;;26.90;11.50;;;;;;;11.63;100.00;101111.31;5069426;28;20120;-69
2022/10/23 05:15:09;;;;;;;19.73;10.82;;;;;;;11.53;100.00;101109.31;5075814;28;20397;-69
2022/10/23 05:17:38;;;;;;;32.67;11.32;;;;;;;11.58;100.00;101099.22;5074406;28;20043;-69
2022/10/23 05:20:08;;;;;;;34.10;13.27;;;;;;;11.59;100.00;101085.75;5062783;28;20105;-69
2022/10/23 05:22:37;;;;;;;27.88;12.05;;;;;;;11.58;100.00;101091.19;5080008;28;20040;-69
2022/10/23 05:25:05;;;;;;;23.58;11.30;;;;;;;11.75;100.00;101084.81;5073315;28;20040;-69
2022/10/23 05:27:32;;;;;;;28.58;9.65;;;;;;;11.89;100.00;101082.94;5082158;28;20040;-69
2022/10/23 05:29:58;;;;;;;25.90;12.75;;;;;;;11.89;100.00;101092.78;5073188;28;20032;-69
2022/10/23 05:32:28;;;;;;;28.55;11.60;;;;;;;11.86;100.00;101098.34;5075093;28;20044;-69
2022/10/23 05:34:54;;;;;;;21.02;10.45;;;;;;;12.09;100.00;101088.81;5076317;28;20378;-69
2022/10/23 05:37:24;;;;;;;25.42;10.15;;;;;;;12.08;100.00;101089.78;5076403;28;20047;-70
2022/10/23 05:40:00;;;;;;;28.10;9.80;;;;;;;12.10;100.00;101103.91;5073393;28;20036;-69
2022/10/23 05:42:25;;;;;;;28.55;10.48;;;;;;;12.04;100.00;101088.25;5055954;28;20495;-69
2022/10/23 05:44:51;;;;;;;28.25;10.80;;;;;;;12.18;100.00;101090.88;5076291;28;20059;-69
2022/10/23 05:47:36;;;;;;;30.05;10.23;;;;;;;12.24;100.00;101085.13;5078267;28;20075;-69
2022/10/23 05:50:14;;;;;;;25.05;10.27;;;;;;;12.30;100.00;101092.75;5072118;28;20097;-69
2022/10/23 05:53:02;;;;;;;28.25;9.80;;;;;;;12.43;100.00;101085.63;5071164;28;20113;-68
2022/10/23 05:55:46;;;;;;;18.98;9.80;;;;;;;12.46;100.00;101078.38;5078594;28;20144;-69
2022/10/23 05:58:30;;;;;;;28.48;10.27;;;;;;;12.50;100.00;101087.88;5072548;28;20040;-70
2022/10/23 06:01:06;;;;;;;23.40;9.88;;;;;;;12.51;100.00;101086.94;5088722;28;20808;-69
2022/10/23 06:03:52;;;;;;;22.08;9.35;;;;;;;12.52;100.00;101080.63;5073445;28;20056;-69
2022/10/23 06:06:21;;;;;;;31.90;9.60;;;;;;;12.62;100.00;101084.38;5074544;28;20243;-69
2022/10/23 06:08:48;;;;;;;31.52;10.23;;;;;;;12.58;100.00;101081.06;5075582;28;20029;-69
2022/10/23 06:11:14;;;;;;;28.50;10.10;;;;;;;12.61;100.00;101080.84;5073087;28;20032;-69
2022/10/23 06:13:47;;;;;;;20.60;9.52;;;;;;;12.58;100.00;101075.69;5070357;28;20489;-69
2022/10/23 06:16:20;;;;;;;20.80;8.35;;;;;;;12.65;100.00;101076.13;5076043;28;20035;-69
2022/10/23 06:18:46;;;;;;;24.58;9.07;;;;;;;12.64;100.00;101069.06;5073041;28;20425;-69
2022/10/23 06:21:14;;;;;;;27.38;9.48;;;;;;;12.65;100.00;101070.78;5071091;28;20043;-69
2022/10/23 06:23:41;;;;;;;25.55;9.05;;;;;;;12.68;100.00;101067.91;5073048;28;20047;-69
2022/10/23 06:26:28;;;;;;;22.55;8.02;;;;;;;12.62;100.00;101069.19;5078328;28;20151;-69
2022/10/23 06:29:02;;;;;;;19.45;7.35;;;;;;;12.67;100.00;101071.56;5074108;28;20812;-68
2022/10/23 06:31:28;;;;;;;19.73;8.25;;;;;;;12.66;100.00;101065.34;5076300;28;20061;-69
2022/10/23 06:33:57;;;;;;;24.60;8.93;;;;;;;12.62;100.00;101055.81;5059384;28;20096;-69
2022/10/23 06:36:23;;;;;;;18.13;6.68;;;;;;;12.78;100.00;101054.75;5085073;28;20040;-69
2022/10/23 06:38:50;;;;;;;21.92;7.68;;;;;;;12.76;100.00;101043.31;5076683;28;20028;-69
2022/10/23 06:41:21;;;;;;;19.48;8.68;;;;;;;12.76;100.00;101041.50;5073906;28;20568;-70
2022/10/23 06:43:52;;;;;;;16.23;7.25;;;;;;;12.85;100.00;101043.53;5068037;28;20721;-69
2022/10/23 06:46:40;;;;;;;14.65;7.10;;;;;;;12.88;100.00;101045.13;5075710;28;20097;-70
2022/10/23 06:49:25;;;;;;;19.08;8.00;;;;;;;12.86;100.00;101045.22;5074719;28;20404;-70
2022/10/23 06:51:52;;;;;;;21.00;7.95;;;;;;;12.91;100.00;101042.25;5074896;28;20032;-69
2022/10/23 06:54:20;;;;;;;19.48;7.72;;;;;;;12.95;100.00;101041.03;5075829;28;20082;-69
2022/10/23 06:56:48;;;;;;;18.83;7.43;;;;;;;12.99;100.00;101039.88;5076793;28;20158;-69
2022/10/23 06:59:18;;;;;;;17.13;6.22;;;;;;;13.05;100.00;101043.94;5076785;28;20487;-69
2022/10/23 07:01:44;;;;;;;19.92;6.50;;;;;;;13.03;100.00;101049.41;5076698;28;20651;-69
2022/10/23 07:04:12;;;;;;;18.40;7.10;;;;;;;13.09;100.00;101048.09;5069760;28;20040;-69
2022/10/23 07:06:39;;;;;;;13.80;7.05;;;;;;;13.12;100.00;101047.91;5078169;28;20048;-69
2022/10/23 07:09:05;;;;;;;15.35;5.93;;;;;;;13.11;100.00;101035.47;5078355;28;20032;-69
2022/10/23 07:11:54;;;;;;;17.23;6.22;;;;;;;13.20;100.00;101038.38;5038834;28;20906;-69
2022/10/23 07:14:26;;;;;;;;;;;;;;;13.17;100.00;101035.91;5021496;28;20053;-70
2022/10/23 07:16:52;;;;;;;12.45;6.25;;;;;;;13.24;100.00;101030.13;5040883;28;19967;-69
2022/10/23 07:19:19;;;;;;;17.45;5.95;;;;;;;13.25;100.00;101030.00;5019243;28;20489;-70
2022/10/23 07:21:55;;;;;;;24.33;6.60;;;;;;;13.27;100.00;101032.59;5022186;28;20028;-70
2022/10/23 07:24:35;;;;;;;13.45;6.30;;;;;;;13.29;100.00;101044.03;5021857;28;20558;-70
2022/10/23 07:27:03;;;;;;;14.98;5.97;;;;;;;13.35;100.00;101030.22;5037841;28;20036;-70
2022/10/23 07:29:29;;;;;;;15.13;6.78;;;;;;;13.38;100.00;101020.13;5015016;28;20533;-70
2022/10/23 07:31:56;;;;;;;13.63;5.90;;;;;;;13.46;100.00;101024.94;5030960;28;20040;-70
2022/10/23 07:34:31;;;;;;;16.73;6.18;;;;;;;13.44;100.00;101022.38;5038438;28;20072;-70
2022/10/23 07:37:15;;;;;;;14.98;6.45;;;;;;;13.48;100.00;101023.00;5021391;28;20102;-69
2022/10/23 07:39:41;;;;;;;14.02;5.97;;;;;;;13.46;100.00;101023.13;5017115;28;20482;-70
2022/10/23 07:42:08;;;;;;;20.60;6.82;;;;;;;13.45;100.00;101023.22;5020299;28;20049;-70
2022/10/23 07:44:34;;;;;;;22.90;8.73;;;;;;;13.50;100.00;101023.75;5017037;28;20574;-69
2022/10/23 07:47:01;;;;;;;18.30;8.18;;;;;;;13.52;100.00;101023.66;5036158;28;20103;-69
2022/10/23 07:49:26;;;;;;;19.27;7.88;;;;;;;13.52;100.00;101016.47;5043390;28;20198;-70
2022/10/23 07:51:52;;;;;;;17.45;6.32;;;;;;;13.56;100.00;101006.38;5078244;28;20043;-70
2022/10/23 07:54:18;;;;;;;19.35;6.93;;;;;;;13.56;100.00;101009.91;5077824;28;20028;-69
2022/10/23 07:57:10;;;;;;;19.50;6.40;;;;;;;13.59;100.00;101011.50;5067199;28;20040;-70
2022/10/23 07:59:44;;;;;;;18.38;6.65;;;;;;;13.58;100.00;101005.28;5075090;28;20031;-70
2022/10/23 08:02:15;;;;;;;14.63;5.82;;;;;;;13.58;100.00;100999.94;5078979;28;20036;-69
2022/10/23 08:04:42;;;;;;;17.58;7.95;;;;;;;13.63;100.00;100997.78;5074392;28;20730;-70
2022/10/23 08:07:22;;;;;;;21.52;6.55;;;;;;;13.61;100.00;101002.41;5078637;28;20036;-69
2022/10/23 08:09:49;;;;;;;15.18;5.22;;;;;;;13.66;100.00;101002.06;5078139;28;20118;-70
2022/10/23 08:12:15;;;;;;;14.73;5.80;;;;;;;13.63;100.00;101007.63;5069224;28;20043;-69
2022/10/23 08:14:40;;;;;;;14.27;5.47;;;;;;;13.61;100.00;101002.41;5076626;28;20109;-70
2022/10/23 08:17:08;;;;;;;19.88;6.25;;;;;;;13.60;100.00;101003.34;5075659;28;20032;-69
2022/10/23 08:20:00;;;;;;;13.65;5.85;;;;;;;13.64;100.00;101002.16;5070321;28;20040;-69
2022/10/23 08:22:31;;;;;;;15.88;6.05;;;;;;;13.69;100.00;100999.13;5091196;28;20139;-70
2022/10/23 08:24:57;;;;;;;16.27;6.00;;;;;;;13.73;100.00;101009.53;5078691;28;20044;-69
2022/10/23 08:27:23;;;;;;;10.85;5.80;;;;;;;13.71;100.00;100989.19;5076880;28;20097;-69
2022/10/23 08:29:49;;;;;;;13.05;5.75;;;;;;;13.72;100.00;100994.41;5076265;28;20024;-70
2022/10/23 08:32:14;;;;;;;20.02;6.55;;;;;;;13.78;100.00;100992.25;5076074;28;20499;-69
2022/10/23 08:34:50;;;;;;;14.68;6.15;;;;;;;13.77;100.00;100994.06;5078052;28;20044;-68
2022/10/23 08:37:16;;;;;;;14.00;6.35;;;;;;;13.80;100.00;100984.94;5076706;28;20569;-69
2022/10/23 08:39:42;;;;;;;14.15;7.25;;;;;;;13.86;100.00;100979.16;5090323;28;20035;-68
2022/10/23 08:42:22;;;;;;;16.23;7.53;;;;;;;13.92;100.00;100970.63;5076013;28;20032;-69
2022/10/23 08:45:04;;;;;;;22.48;6.88;;;;;;;13.98;100.00;100967.47;5074310;28;20878;-70
2022/10/23 08:47:43;;;;;;;14.50;5.35;;;;;;;14.06;100.00;100969.59;5074647;28;20044;-68
2022/10/23 08:50:39;;;;;;;14.18;4.95;;;;;;;14.10;100.00;100966.53;5078222;28;20051;-69
2022/10/23 08:53:12;;;;;;;9.82;4.70;;;;;;;14.19;100.00;100967.66;5072271;28;20044;-69
2022/10/23 08:55:43;;;;;;;10.15;4.85;;;;;;;14.19;100.00;100960.47;5075696;28;20089;-68
2022/10/23 08:58:17;;;;;;;10.30;6.10;;;;;;;14.29;100.00;100960.63;5076121;28;20787;-68
2022/10/23 09:00:45;;;;;;;13.48;5.65;;;;;;;14.34;100.00;100954.91;5076151;28;20036;-69
2022/10/23 09:03:12;;;;;;;13.52;5.60;;;;;;;14.34;100.00;100947.72;5077705;28;20111;-68
2022/10/23 09:05:46;;;;;;;10.00;4.95;;;;;;;14.40;100.00;100941.00;5073015;28;20048;-69
2022/10/23 09:08:24;;;;;;;12.27;5.05;;;;;;;14.49;100.00;100943.88;5072629;28;20483;-68
2022/10/23 09:11:08;;;;;;;10.27;5.72;;;;;;;14.53;100.00;100946.31;5076685;28;20119;-68
2022/10/23 09:13:48;;;;;;;10.50;4.65;;;;;;;14.57;100.00;100945.13;5074808;28;21015;-68
2022/10/23 09:16:43;;;;;;;10.63;4.55;;;;;;;14.59;100.00;100935.94;5073365;28;20765;-69
2022/10/23 09:19:18;;;;;;;14.80;5.18;;;;;;;14.72;100.00;100934.00;5076404;28;20073;-68
2022/10/23 09:21:48;;;;;;;15.98;5.28;;;;;;;14.83;100.00;100935.00;5074194;28;20072;-68
2022/10/23 09:24:16;;;;;;;8.02;4.68;;;;;;;14.82;100.00;100926.09;5076871;28;20036;-68
2022/10/23 09:26:47;;;;;;;9.57;4.57;;;;;;;14.87;100.00;100914.97;5079177;28;20035;-69
2022/10/23 09:29:44;;;;;;;9.70;5.17;;;;;;;14.91;100.00;100905.69;5072658;28;20035;-70
2022/10/23 09:32:09;;;;;;;10.02;5.13;;;;;;;14.98;100.00;100902.38;5070929;28;20082;-69
2022/10/23 09:34:35;;;;;;;8.73;5.20;;;;;;;14.89;100.00;100908.50;5070038;28;20587;-69
2022/10/23 09:37:23;;;;;;;11.00;4.70;;;;;;;14.85;100.00;100907.03;5073061;28;20567;-69
2022/10/23 09:39:59;;;;;;;13.45;5.40;;;;;;;14.90;100.00;100910.19;5071552;28;20043;-69
2022/10/23 09:42:25;;;;;;;15.50;5.65;;;;;;;14.87;100.00;100909.63;5075205;28;20934;-69
2022/10/23 09:44:53;;;;;;;14.88;5.00;;;;;;;14.93;100.00;100912.66;5076332;28;20097;-69
2022/10/23 09:47:22;;;;;;;13.45;5.32;;;;;;;14.97;100.00;100913.25;5071640;28;20051;-69
2022/10/23 09:49:54;;;;;;;15.60;5.68;;;;;;;14.93;100.00;100911.78;5071462;28;20040;-69
2022/10/23 09:52:33;;;;;;;9.23;4.70;;;;;;;14.90;100.00;100907.50;5071069;28;20284;-69
2022/10/23 09:55:01;;;;;;;14.00;5.43;;;;;;;14.86;100.00;100905.19;5077705;28;20258;-68
2022/10/23 09:57:34;;;;;;;15.07;4.78;;;;;;;14.93;100.00;100898.38;5077031;28;20085;-69
2022/10/23 10:00:16;;;;;;;11.95;4.30;;;;;;;15.08;100.00;100889.06;5072707;28;20055;-69
2022/10/23 10:02:53;;;;;;;6.30;4.07;;;;;;;15.23;100.00;100881.59;5071336;28;20093;-69
2022/10/23 10:05:41;;;;;;;10.07;4.03;;;;;;;15.45;100.00;100873.44;5071101;28;20055;-69
2022/10/23 10:08:43;;;;;;;8.35;4.10;;;;;;;15.49;100.00;100879.41;5055336;28;20413;-68
2022/10/23 10:11:34;;;;;;;11.35;4.28;;;;;;;15.45;100.00;100877.97;5076329;28;20439;-69
2022/10/23 10:14:11;;;;;;;14.57;3.97;;;;;;;15.45;100.00;100870.75;5074996;28;20040;-70
2022/10/23 10:16:48;;;;;;;8.27;3.33;;;;;;;15.51;100.00;100854.13;5068216;28;20047;-69
2022/10/23 10:19:41;;;;;;;8.50;4.15;;;;;;;15.59;100.00;100866.06;5077327;28;20557;-68
2022/10/23 10:22:35;;;;;;;7.65;3.33;;;;;;;15.65;100.00;100862.88;5087894;28;20036;-69
2022/10/23 10:25:25;;;;;;;9.88;3.80;;;;;;;15.64;100.00;100863.88;5074114;28;20044;-69
2022/10/23 10:28:06;;;;;;;7.32;3.30;;;;;;;15.67;100.00;100867.16;5077112;28;20363;-69
2022/10/23 10:31:01;;;;;;;11.65;4.35;;;;;;;15.82;100.00;100853.41;5073587;28;20620;-69
2022/10/23 10:33:39;;;;;;;14.13;3.30;;;;;;;15.87;100.00;100843.13;5090982;28;20939;-69
2022/10/23 10:36:04;;;;;;;9.48;3.72;;;;;;;15.89;100.00;100835.75;5076996;28;20500;-70
2022/10/23 10:38:41;;;;;;;9.32;4.13;;;;;;;15.94;100.00;100838.91;5077531;28;20044;-69
2022/10/23 10:41:23;;;;;;;8.25;3.60;;;;;;;15.92;100.00;100833.66;5075147;28;20751;-70
2022/10/23 10:44:13;;;;;;;11.00;3.40;;;;;;;15.92;100.00;100822.06;5054875;28;20044;-68
2022/10/23 10:46:57;;;;;;;11.57;4.85;;;;;;;15.91;100.00;100821.19;5071590;28;20037;-69
2022/10/23 10:49:35;;;;;;;12.30;4.03;;;;;;;15.96;100.00;100826.16;5084102;28;20064;-70
2022/10/23 10:52:27;;;;;;;9.07;4.00;;;;;;;16.07;100.00;100809.97;5093824;28;20077;-69
2022/10/23 10:55:23;;;;;;;9.32;3.95;;;;;;;16.12;100.00;100802.34;5080133;28;20032;-70
2022/10/23 10:58:27;;;;;;;11.85;4.30;;;;;;;16.16;100.00;100800.22;5076082;28;20126;-70
2022/10/23 11:01:00;;;;;;;7.43;3.78;;;;;;;16.23;100.00;100790.66;5068178;28;20060;-69
2022/10/23 11:03:32;;;;;;;;;;;;;;;16.26;100.00;100768.81;5075509;28;20492;-69
2022/10/23 11:06:00;;;;;;;8.57;3.90;;;;;;;16.24;100.00;100763.59;5066342;28;19938;-69
2022/10/23 11:08:38;;;;;;;7.93;3.35;;;;;;;16.30;100.00;100744.22;5080320;28;20216;-69
2022/10/23 11:11:27;;;;;;;9.70;3.70;;;;;;;16.39;100.00;100745.22;5080477;28;20028;-69
2022/10/23 11:13:56;;;;;;;9.50;3.53;;;;;;;16.39;100.00;100750.63;5089071;28;20036;-69
2022/10/23 11:16:24;;;;;;;13.93;3.28;;;;;;;16.39;100.00;100745.22;5077306;28;20059;-70
2022/10/23 11:19:02;;;;;;;18.40;3.72;;;;;;;16.61;100.00;100729.84;5079811;28;20032;-72
2022/10/23 11:21:43;;;;;;;10.23;3.83;;;;;;;16.52;100.00;100739.63;5078538;28;20048;-69
2022/10/23 11:24:15;;;;;;;8.27;3.20;;;;;;;16.63;100.00;100739.50;5079181;28;20036;-70
2022/10/23 11:27:20;;;;;;;11.45;3.83;;;;;;;16.67;100.00;100729.31;5078743;28;20048;-69
2022/10/23 11:30:16;;;;;;;8.50;2.80;;;;;;;16.79;100.00;100730.91;5074067;28;20533;-69
2022/10/23 11:33:23;;;;;;;8.98;3.50;;;;;;;16.83;100.00;100729.63;5079777;28;20503;-70
2022/10/23 11:36:14;;;;;;;7.30;3.92;;;;;;;17.04;100.00;100727.66;5078327;28;20047;-69
2022/10/23 11:38:44;;;;;;;15.67;3.70;;;;;;;17.03;100.00;100728.66;5064813;28;20045;-69
2022/10/23 11:41:23;;;;;;;11.75;4.53;;;;;;;17.20;100.00;100721.69;5069596;28;20081;-69